createdAt,value
2018-09-03T00:31:33.621Z,43.3
2018-09-03T00:32:22.644Z,43.1
2018-09-03T00:33:13.565Z,43.2
2018-09-03T00:34:03.589Z,43.2
2018-09-03T00:34:52.785Z,43.1
2018-09-03T00:35:43.429Z,43.1
2018-09-03T00:36:34.034Z,43.1
2018-09-03T00:37:23.294Z,43.1
2018-09-03T00:38:13.638Z,43.1
2018-09-03T00:39:02.575Z,43.1
2018-09-03T00:39:53.480Z,43.1
2018-09-03T00:40:44.121Z,43.1
2018-09-03T00:41:33.888Z,43.1
2018-09-03T00:42:24.008Z,43.1
2018-09-03T00:43:13.793Z,43.1
2018-09-03T00:44:03.556Z,43.1
2018-09-03T00:44:53.868Z,43.1
2018-09-03T00:45:44.498Z,43.1
2018-09-03T00:46:33.980Z,43.1
2018-09-03T00:47:24.618Z,43.1
2018-09-03T00:48:14.487Z,43.1
2018-09-03T00:49:04.493Z,43.1
2018-09-03T00:49:54.563Z,43.1
2018-09-03T00:50:44.898Z,43
2018-09-03T00:51:34.439Z,43
2018-09-03T00:52:24.977Z,43
2018-09-03T00:53:15.340Z,43
2018-09-03T00:54:04.300Z,43
2018-09-03T00:54:55.197Z,43
2018-09-03T00:55:44.688Z,43
2018-09-03T00:56:35.068Z,43
2018-09-03T00:57:24.904Z,43
2018-09-03T00:58:13.607Z,43
2018-09-03T00:59:03.956Z,43
2018-09-03T00:59:55.057Z,42.9
2018-09-03T01:00:44.023Z,42.9
2018-09-03T01:01:34.650Z,42.9
2018-09-03T01:02:23.914Z,42.9
2018-09-03T01:03:15.114Z,42.9
2018-09-03T01:04:05.098Z,42.9
2018-09-03T01:04:55.927Z,42.9
2018-09-03T01:05:45.798Z,42.9
2018-09-03T01:06:35.597Z,42.9
2018-09-03T01:07:26.650Z,42.9
2018-09-03T01:08:15.415Z,42.9
2018-09-03T01:09:05.504Z,42.9
2018-09-03T01:09:55.543Z,42.9
2018-09-03T01:10:46.182Z,42.9
2018-09-03T01:11:36.517Z,42.9
2018-09-03T01:12:26.815Z,42.9
2018-09-03T01:13:16.347Z,42.8
2018-09-03T01:14:06.231Z,42.9
2018-09-03T01:14:56.524Z,42.8
2018-09-03T01:15:47.029Z,42.8
2018-09-03T01:16:36.184Z,42.8
2018-09-03T01:17:26.681Z,42.8
2018-09-03T01:18:16.811Z,42.8
2018-09-03T01:19:05.976Z,42.8
2018-09-03T01:19:56.331Z,42.8
2018-09-03T01:20:46.691Z,42.8
2018-09-03T01:21:36.732Z,42.8
2018-09-03T01:22:26.989Z,42.8
2018-09-03T01:23:17.679Z,42.8
2018-09-03T01:24:06.660Z,42.8
2018-09-03T01:24:57.121Z,42.8
2018-09-03T01:25:46.776Z,42.8
2018-09-03T01:26:37.133Z,42.8
2018-09-03T01:27:27.473Z,42.8
2018-09-03T01:28:16.950Z,42.7
2018-09-03T01:29:07.635Z,42.8
2018-09-03T01:30:01.513Z,42.7
2018-09-03T01:31:01.908Z,42.7
2018-09-03T01:31:52.710Z,42.7
2018-09-03T01:32:28.123Z,42.7
2018-09-03T01:33:32.838Z,42.7
2018-09-03T01:34:08.245Z,42.7
2018-09-03T01:34:58.260Z,42.7
2018-09-03T01:35:48.050Z,42.7
2018-09-03T01:36:38.171Z,42.7
2018-09-03T01:37:27.955Z,42.7
2018-09-03T01:38:18.035Z,42.7
2018-09-03T01:39:21.914Z,42.6
2018-09-03T01:39:58.419Z,42.6
2018-09-03T01:40:48.198Z,42.7
2018-09-03T01:41:52.671Z,42.6
2018-09-03T01:42:29.681Z,42.6
2018-09-03T01:43:18.657Z,42.6
2018-09-03T01:44:09.044Z,42.6
2018-09-03T01:44:59.273Z,42.6
2018-09-03T01:46:04.040Z,42.6
2018-09-03T01:46:39.379Z,42.6
2018-09-03T01:47:44.173Z,42.6
2018-09-03T01:48:18.537Z,42.6
2018-09-03T01:49:08.910Z,42.6
2018-09-03T01:49:58.128Z,42.6
2018-09-03T01:51:04.577Z,42.6
2018-09-03T01:51:39.602Z,42.6
2018-09-03T01:52:45.028Z,42.6
2018-09-03T01:53:19.731Z,42.6
2018-09-03T01:54:09.708Z,42.5
2018-09-03T01:54:59.218Z,42.5
2018-09-03T01:55:49.919Z,42.5
2018-09-03T01:56:39.625Z,42.5
2018-09-03T01:57:29.415Z,42.5
2018-09-03T01:58:19.537Z,42.5
2018-09-03T01:59:10.093Z,42.5
2018-09-03T02:00:00.101Z,42.5
2018-09-03T02:00:50.452Z,42.5
2018-09-03T02:01:40.320Z,42.5
2018-09-03T02:02:30.598Z,42.5
2018-09-03T02:03:20.247Z,42.4
2018-09-03T02:04:09.735Z,42.5
2018-09-03T02:04:59.851Z,42.5
2018-09-03T02:05:51.055Z,42.5
2018-09-03T02:06:41.410Z,42.5
2018-09-03T02:07:30.567Z,42.4
2018-09-03T02:08:20.645Z,42.4
2018-09-03T02:09:25.043Z,42.4
2018-09-03T02:10:00.576Z,42.4
2018-09-03T02:10:50.854Z,42.4
2018-09-03T02:11:40.311Z,42.4
2018-09-03T02:12:30.943Z,42.4
2018-09-03T02:13:20.277Z,42.4
2018-09-03T02:14:11.647Z,42.4
2018-09-03T02:15:00.920Z,42.4
2018-09-03T02:15:51.187Z,42.4
2018-09-03T02:16:55.357Z,42.4
2018-09-03T02:17:31.677Z,42.4
2018-09-03T02:18:21.390Z,42.4
2018-09-03T02:19:10.980Z,42.4
2018-09-03T02:20:01.239Z,42.4
2018-09-03T02:21:41.128Z,42.3
2018-09-03T02:22:29.934Z,42.3
2018-09-03T02:23:21.104Z,42.3
2018-09-03T02:24:26.529Z,42.4
2018-09-03T02:25:02.527Z,42.3
2018-09-03T02:25:51.301Z,42.3
2018-09-03T02:26:42.338Z,42.3
2018-09-03T02:27:32.666Z,42.3
2018-09-03T02:28:37.479Z,42.3
2018-09-03T02:29:12.487Z,42.3
2018-09-03T02:30:16.583Z,42.3
2018-09-03T02:30:51.862Z,42.3
2018-09-03T02:31:57.066Z,42.3
2018-09-03T02:32:32.244Z,42.3
2018-09-03T02:33:22.066Z,42.3
2018-09-03T02:34:12.359Z,42.3
2018-09-03T02:35:17.334Z,42.3
2018-09-03T02:35:52.693Z,42.3
2018-09-03T02:36:43.443Z,42.3
2018-09-03T02:37:32.579Z,42.3
2018-09-03T02:38:22.606Z,42.3
2018-09-03T02:39:13.503Z,42.2
2018-09-03T02:40:17.103Z,42.2
2018-09-03T02:40:53.510Z,42.2
2018-09-03T02:42:32.703Z,42.2
2018-09-03T02:43:23.643Z,42.2
2018-09-03T02:44:13.798Z,42.2
2018-09-03T02:45:03.436Z,42.2
2018-09-03T02:45:53.820Z,42.2
2018-09-03T02:46:43.608Z,42.1
2018-09-03T02:47:34.424Z,42.2
2018-09-03T02:48:23.995Z,42.1
2018-09-03T02:49:28.857Z,42.1
2018-09-03T02:50:04.795Z,42.1
2018-09-03T02:50:53.020Z,42.1
2018-09-03T02:51:43.687Z,42.1
2018-09-03T02:52:34.869Z,42.1
2018-09-03T02:53:23.562Z,42.1
2018-09-03T02:54:14.130Z,42.1
2018-09-03T02:55:03.088Z,42.1
2018-09-03T02:56:09.127Z,42.1
2018-09-03T02:56:44.577Z,42.1
2018-09-03T02:57:35.120Z,42.1
2018-09-03T02:58:24.720Z,42.1
2018-09-03T02:59:13.832Z,42.1
2018-09-03T03:00:04.362Z,42.1
2018-09-03T03:00:54.960Z,42.1
2018-09-03T03:01:44.199Z,42.1
2018-09-03T03:02:36.385Z,42.1
2018-09-03T03:03:24.221Z,42.1
2018-09-03T03:04:14.889Z,42.1
2018-09-03T03:05:05.242Z,42.1
2018-09-03T03:05:55.071Z,42.1
2018-09-03T03:06:45.244Z,42.1
2018-09-03T03:07:35.227Z,42
2018-09-03T03:08:24.836Z,42
2018-09-03T03:09:44.993Z,42
2018-09-03T03:10:05.536Z,42
2018-09-03T03:10:54.631Z,42
2018-09-03T03:12:01.104Z,42
2018-09-03T03:12:35.063Z,42
2018-09-03T03:13:26.341Z,42
2018-09-03T03:14:16.121Z,42
2018-09-03T03:15:06.415Z,41.9
2018-09-03T03:15:55.312Z,41.9
2018-09-03T03:16:45.401Z,42
2018-09-03T03:17:35.382Z,41.9
2018-09-03T03:18:26.282Z,42
2018-09-03T03:19:16.366Z,41.9
2018-09-03T03:20:06.233Z,41.9
2018-09-03T03:20:56.256Z,41.9
2018-09-03T03:21:45.213Z,41.9
2018-09-03T03:22:36.016Z,41.9
2018-09-03T03:23:26.245Z,41.9
2018-09-03T03:24:15.656Z,41.9
2018-09-03T03:25:56.378Z,41.9
2018-09-03T03:26:46.690Z,41.9
2018-09-03T03:27:37.088Z,41.9
2018-09-03T03:28:25.691Z,41.9
2018-09-03T03:29:16.600Z,41.9
2018-09-03T03:30:06.728Z,41.9
2018-09-03T03:30:56.748Z,41.9
2018-09-03T03:31:46.800Z,41.9
2018-09-03T03:32:36.757Z,41.9
2018-09-03T03:33:27.525Z,41.9
2018-09-03T03:34:17.291Z,41.9
2018-09-03T03:35:07.349Z,41.8
2018-09-03T03:35:57.921Z,41.8
2018-09-03T03:36:47.448Z,41.8
2018-09-03T03:37:37.248Z,41.9
2018-09-03T03:38:27.579Z,41.8
2018-09-03T03:39:17.917Z,41.8
2018-09-03T03:40:06.622Z,41.8
2018-09-03T03:40:57.999Z,41.8
2018-09-03T03:41:48.137Z,41.8
2018-09-03T03:42:37.395Z,41.8
2018-09-03T03:43:27.987Z,41.8
2018-09-03T03:44:17.768Z,41.8
2018-09-03T03:45:08.119Z,41.8
2018-09-03T03:45:57.851Z,41.8
2018-09-03T03:46:48.194Z,41.8
2018-09-03T03:47:38.006Z,41.8
2018-09-03T03:48:28.198Z,41.8
2018-09-03T03:49:17.899Z,41.8
2018-09-03T03:50:08.221Z,41.8
2018-09-03T03:50:58.813Z,41.8
2018-09-03T03:51:48.358Z,41.8
2018-09-03T03:52:38.404Z,41.8
2018-09-03T03:53:27.898Z,41.8
2018-09-03T03:54:18.553Z,41.7
2018-09-03T03:55:10.156Z,41.7
2018-09-03T03:55:59.272Z,41.7
2018-09-03T03:56:48.983Z,41.7
2018-09-03T03:57:38.816Z,41.8
2018-09-03T03:58:30.031Z,41.7
2018-09-03T03:59:19.750Z,41.7
2018-09-03T04:00:09.954Z,41.7
2018-09-03T04:01:00.028Z,41.7
2018-09-03T04:01:50.735Z,41.7
2018-09-03T04:02:40.369Z,41.7
2018-09-03T04:03:29.896Z,41.7
2018-09-03T04:04:21.028Z,41.7
2018-09-03T04:05:09.789Z,41.6
2018-09-03T04:06:00.291Z,41.6
2018-09-03T04:06:49.996Z,41.6
2018-09-03T04:07:40.153Z,41.6
2018-09-03T04:08:28.826Z,41.6
2018-09-03T04:09:20.101Z,41.6
2018-09-03T04:10:09.510Z,41.6
2018-09-03T04:10:59.837Z,41.6
2018-09-03T04:11:49.675Z,41.6
2018-09-03T04:12:40.745Z,41.6
2018-09-03T04:13:30.322Z,41.6
2018-09-03T04:14:20.167Z,41.6
2018-09-03T04:15:10.722Z,41.6
2018-09-03T04:16:00.831Z,41.6
2018-09-03T04:16:50.893Z,41.6
2018-09-03T04:17:40.099Z,41.6
2018-09-03T04:18:31.212Z,41.6
2018-09-03T04:19:21.077Z,41.6
2018-09-03T04:20:10.327Z,41.6
2018-09-03T04:21:01.155Z,41.6
2018-09-03T04:21:50.098Z,41.6
2018-09-03T04:22:41.076Z,41.6
2018-09-03T04:23:33.237Z,41.6
2018-09-03T04:24:20.915Z,41.6
2018-09-03T04:25:11.609Z,41.5
2018-09-03T04:26:01.574Z,41.5
2018-09-03T04:26:50.488Z,41.5
2018-09-03T04:27:41.211Z,41.5
2018-09-03T04:28:31.954Z,41.5
2018-09-03T04:29:21.292Z,41.5
2018-09-03T04:30:10.840Z,41.5
2018-09-03T04:31:01.716Z,41.5
2018-09-03T04:31:51.554Z,41.5
2018-09-03T04:32:41.670Z,41.4
2018-09-03T04:33:33.248Z,41.4
2018-09-03T04:34:22.805Z,41.4
2018-09-03T04:35:12.034Z,41.4
2018-09-03T04:36:02.076Z,41.4
2018-09-03T04:36:52.364Z,41.4
2018-09-03T04:37:41.733Z,41.4
2018-09-03T04:38:32.960Z,41.4
2018-09-03T04:39:22.638Z,41.4
2018-09-03T04:40:11.858Z,41.4
2018-09-03T04:41:02.783Z,41.4
2018-09-03T04:41:52.360Z,41.4
2018-09-03T04:42:42.772Z,41.4
2018-09-03T05:00:20.855Z,41.3
2018-09-03T05:01:10.800Z,41.3
2018-09-03T05:02:00.070Z,41.3
2018-09-03T05:02:50.925Z,41.3
2018-09-03T05:03:39.961Z,41.3
2018-09-03T05:04:31.036Z,41.3
2018-09-03T05:05:21.561Z,41.3
2018-09-03T05:06:11.761Z,41.3
2018-09-03T05:07:00.362Z,41.3
2018-09-03T05:07:51.012Z,41.3
2018-09-03T05:08:41.080Z,41.3
2018-09-03T05:09:30.839Z,41.3
2018-09-03T05:10:21.502Z,41.3
2018-09-03T05:11:10.969Z,41.3
2018-09-03T05:12:01.913Z,41.3
2018-09-03T05:12:50.518Z,41.3
2018-09-03T05:13:41.238Z,41.3
2018-09-03T05:14:30.941Z,41.3
2018-09-03T05:15:22.082Z,41.3
2018-09-03T05:16:10.916Z,41.3
2018-09-03T05:17:01.437Z,41.3
2018-09-03T05:17:51.510Z,41.2
2018-09-03T05:18:41.819Z,41.3
2018-09-03T05:19:32.147Z,41.2
2018-09-03T05:20:20.914Z,41.2
2018-09-03T05:21:11.246Z,41.2
2018-09-03T05:22:01.808Z,41.2
2018-09-03T05:22:51.831Z,41.2
2018-09-03T05:23:42.239Z,41.2
2018-09-03T05:24:32.311Z,41.2
2018-09-03T05:25:22.402Z,41.2
2018-09-03T05:26:12.494Z,41.2
2018-09-03T05:27:02.511Z,41.2
2018-09-03T05:27:51.857Z,41.2
2018-09-03T05:28:41.558Z,41.2
2018-09-03T05:29:32.950Z,41.1
2018-09-03T05:30:22.153Z,41.2
2018-09-03T05:31:13.654Z,41.1
2018-09-03T05:32:02.538Z,41.2
2018-09-03T05:32:52.929Z,41.1
2018-09-03T05:33:42.730Z,41.1
2018-09-03T05:34:33.054Z,41.1
2018-09-03T05:35:23.233Z,41.1
2018-09-03T05:36:12.982Z,41.1
2018-09-03T05:37:03.589Z,41.1
2018-09-03T05:37:53.323Z,41.1
2018-09-03T05:38:43.126Z,41.1
2018-09-03T05:39:33.421Z,41.1
2018-09-03T05:40:24.254Z,41.1
2018-09-03T05:41:14.927Z,41.1
2018-09-03T05:42:04.170Z,41.1
2018-09-03T05:42:54.204Z,41.1
2018-09-03T05:43:46.227Z,41.1
2018-09-03T05:44:33.779Z,41.1
2018-09-03T05:45:24.420Z,41.1
2018-09-03T05:46:14.796Z,41
2018-09-03T05:47:03.820Z,41
2018-09-03T05:47:54.061Z,41
2018-09-03T05:48:44.603Z,41
2018-09-03T05:49:34.431Z,41
2018-09-03T05:50:26.413Z,41
2018-09-03T05:51:14.727Z,40.9
2018-09-03T05:52:04.156Z,41
2018-09-03T05:52:54.242Z,41
2018-09-03T05:53:44.813Z,41
2018-09-03T05:54:34.902Z,40.9
2018-09-03T05:55:24.653Z,40.9
2018-09-03T05:56:14.857Z,40.9
2018-09-03T05:57:04.817Z,41
2018-09-03T05:57:54.048Z,40.9
2018-09-03T05:58:44.984Z,40.9
2018-09-03T05:59:35.096Z,40.9
2018-09-03T06:00:24.922Z,40.9
2018-09-03T06:01:15.690Z,40.9
2018-09-03T06:02:05.242Z,40.9
2018-09-03T06:02:55.057Z,40.9
2018-09-03T06:03:44.847Z,40.9
2018-09-03T06:04:35.674Z,40.9
2018-09-03T06:05:24.552Z,40.9
2018-09-03T06:06:15.790Z,40.9
2018-09-03T06:07:05.577Z,40.9
2018-09-03T06:07:55.908Z,40.9
2018-09-03T06:08:45.499Z,40.9
2018-09-03T06:09:35.207Z,40.9
2018-09-03T06:10:26.458Z,40.9
2018-09-03T06:11:17.613Z,40.9
2018-09-03T06:12:05.972Z,40.9
2018-09-03T06:12:55.472Z,40.9
2018-09-03T06:13:45.776Z,40.9
2018-09-03T06:14:36.151Z,40.9
2018-09-03T06:15:26.246Z,40.9
2018-09-03T06:16:16.545Z,40.9
2018-09-03T06:17:06.401Z,40.9
2018-09-03T06:17:57.388Z,40.9
2018-09-03T06:18:46.813Z,40.9
2018-09-03T06:19:36.596Z,40.9
2018-09-03T06:20:26.874Z,40.8
2018-09-03T06:21:17.441Z,40.8
2018-09-03T06:22:07.076Z,40.8
2018-09-03T06:22:56.876Z,40.9
2018-09-03T06:23:46.913Z,40.8
2018-09-03T06:24:37.314Z,40.8
2018-09-03T06:25:27.009Z,40.8
2018-09-03T06:26:17.405Z,40.8
2018-09-03T06:27:07.786Z,40.8
2018-09-03T06:27:56.654Z,40.8
2018-09-03T06:28:47.326Z,40.8
2018-09-03T06:29:37.381Z,40.8
2018-09-03T06:30:27.458Z,40.8
2018-09-03T06:31:17.988Z,40.8
2018-09-03T06:32:06.703Z,40.8
2018-09-03T06:32:58.566Z,40.8
2018-09-03T06:33:46.802Z,40.8
2018-09-03T06:34:37.458Z,40.8
2018-09-03T06:35:28.035Z,40.8
2018-09-03T06:36:17.838Z,40.8
2018-09-03T06:37:07.991Z,40.8
2018-09-03T06:37:58.263Z,40.8
2018-09-03T06:38:47.549Z,40.8
2018-09-03T06:39:36.740Z,40.8
2018-09-03T06:40:27.217Z,40.8
2018-09-03T06:41:17.771Z,40.8
2018-09-03T06:42:09.079Z,40.8
2018-09-03T06:42:58.029Z,40.8
2018-09-03T06:43:47.827Z,40.8
2018-09-03T06:44:38.472Z,40.8
2018-09-03T06:45:28.242Z,40.7
2018-09-03T06:46:18.307Z,40.7
2018-09-03T06:47:08.709Z,40.7
2018-09-03T06:47:58.747Z,36.9
2018-09-03T06:48:48.849Z,31.8
2018-09-03T06:49:38.811Z,40.6
2018-09-03T06:50:29.265Z,43.3
2018-09-03T06:51:19.271Z,43.3
2018-09-03T06:52:09.724Z,43.1
2018-09-03T06:52:58.581Z,42.8
2018-09-03T06:53:49.652Z,42.5
2018-09-03T06:54:39.483Z,42.2
2018-09-03T06:55:28.965Z,41.9
2018-09-03T06:56:19.032Z,41.7
2018-09-03T06:57:10.443Z,41.6
2018-09-03T06:57:59.457Z,41.6
2018-09-03T06:58:49.529Z,41.6
2018-09-03T06:59:40.487Z,41.6
2018-09-03T07:00:29.637Z,41.6
2018-09-03T07:01:20.047Z,41.4
2018-09-03T07:02:09.969Z,40.2
2018-09-03T07:03:00.129Z,47.1
2018-09-03T07:03:50.184Z,49.4
2018-09-03T07:04:40.043Z,49.4
2018-09-03T07:05:29.473Z,48.8
2018-09-03T07:06:20.413Z,48.3
2018-09-03T07:07:10.456Z,48.1
2018-09-03T07:07:59.309Z,48.5
2018-09-03T07:08:50.562Z,49.3
2018-09-03T07:09:40.339Z,49.9
2018-09-03T07:10:30.687Z,50.4
2018-09-03T07:11:20.485Z,50.6
2018-09-03T07:12:10.245Z,50.7
2018-09-03T07:13:00.945Z,50.8
2018-09-03T07:13:50.733Z,50.6
2018-09-03T07:14:39.959Z,50.6
2018-09-03T07:15:30.339Z,50.5
2018-09-03T07:16:19.812Z,50.4
2018-09-03T07:17:10.515Z,50.3
2018-09-03T07:18:00.962Z,50.2
2018-09-03T07:18:52.398Z,50.1
2018-09-03T07:19:41.397Z,50.1
2018-09-03T07:20:31.224Z,50.3
2018-09-03T07:21:21.287Z,50.8
2018-09-03T07:22:11.314Z,51.1
2018-09-03T07:23:01.367Z,51.4
2018-09-03T07:23:51.436Z,51.5
2018-09-03T07:24:41.804Z,51.1
2018-09-03T07:25:31.571Z,50.7
2018-09-03T07:26:20.798Z,50.3
2018-09-03T07:27:11.984Z,50.1
2018-09-03T07:28:01.769Z,49.9
2018-09-03T07:28:53.142Z,49.9
2018-09-03T07:29:41.914Z,49.9
2018-09-03T07:30:31.689Z,49.8
2018-09-03T07:31:21.464Z,49.7
2018-09-03T07:32:11.783Z,49.7
2018-09-03T07:33:02.181Z,49.7
2018-09-03T07:33:51.853Z,49.6
2018-09-03T07:34:42.299Z,49.6
2018-09-03T07:35:32.734Z,49.5
2018-09-03T07:36:22.180Z,49.6
2018-09-03T07:37:12.468Z,49.6
2018-09-03T07:38:03.071Z,49.5
2018-09-03T07:38:52.840Z,49.4
2018-09-03T07:39:42.675Z,49.3
2018-09-03T07:40:32.176Z,49.3
2018-09-03T07:41:22.517Z,49.2
2018-09-03T07:42:12.648Z,49.1
2018-09-03T07:43:03.019Z,49.1
2018-09-03T07:43:53.673Z,49.1
2018-09-03T07:44:43.075Z,49.1
2018-09-03T07:45:32.833Z,49
2018-09-03T07:46:22.938Z,49
2018-09-03T07:47:13.270Z,48.9
2018-09-03T07:48:02.779Z,48.9
2018-09-03T07:48:53.355Z,48.8
2018-09-03T07:49:43.231Z,48.8
2018-09-03T07:50:33.785Z,48.8
2018-09-03T07:51:23.945Z,48.8
2018-09-03T07:52:13.243Z,48.8
2018-09-03T07:53:04.195Z,48.9
2018-09-03T07:53:53.917Z,49
2018-09-03T07:54:43.112Z,49.1
2018-09-03T07:55:33.713Z,49.2
2018-09-03T07:56:24.275Z,49.1
2018-09-03T07:57:14.235Z,49.1
2018-09-03T07:58:04.102Z,49.2
2018-09-03T07:58:54.615Z,49.4
2018-09-03T07:59:43.746Z,49.6
2018-09-03T08:00:33.315Z,49.6
2018-09-03T08:01:25.033Z,49.5
2018-09-03T08:02:14.250Z,49.4
2018-09-03T08:03:04.844Z,49.4
2018-09-03T08:03:54.296Z,49.4
2018-09-03T08:04:44.914Z,49.4
2018-09-03T08:05:34.175Z,49.4
2018-09-03T08:06:24.886Z,49.5
2018-09-03T08:07:15.146Z,49.5
2018-09-03T08:08:05.252Z,49.5
2018-09-03T08:08:55.536Z,49.5
2018-09-03T08:09:44.993Z,49.5
2018-09-03T08:10:35.071Z,49.5
2018-09-03T08:11:25.422Z,49.6
2018-09-03T08:12:15.210Z,49.6
2018-09-03T08:13:06.243Z,49.8
2018-09-03T08:13:55.398Z,50.1
2018-09-03T08:14:45.917Z,50.6
2018-09-03T08:15:35.568Z,51.8
2018-09-03T08:16:25.526Z,52.8
2018-09-03T08:17:15.431Z,52.8
2018-09-03T08:18:05.104Z,52.6
2018-09-03T08:18:55.424Z,52.6
2018-09-03T08:19:45.454Z,52.6
2018-09-03T08:21:25.984Z,52.4
2018-09-03T08:22:16.009Z,53.1
2018-09-03T08:23:06.044Z,54
2018-09-03T08:23:56.381Z,54.8
2018-09-03T08:24:46.441Z,55.4
2018-09-03T08:25:36.466Z,55.8
2018-09-03T08:26:26.007Z,56.1
2018-09-03T08:27:15.596Z,56.3
2018-09-03T08:28:06.435Z,56.7
2018-09-03T08:28:56.533Z,57
2018-09-03T08:29:46.870Z,57.3
2018-09-03T08:30:36.851Z,57.6
2018-09-03T08:31:26.209Z,57.7
2018-09-03T08:32:16.471Z,57.7
2018-09-03T08:33:06.831Z,57.6
2018-09-03T08:33:56.896Z,57.6
2018-09-03T08:34:47.468Z,57.6
2018-09-03T08:35:37.758Z,57.6
2018-09-03T08:36:27.093Z,57.5
2018-09-03T08:37:16.591Z,57.4
2018-09-03T08:38:07.485Z,57.3
2018-09-03T08:38:57.287Z,57.1
2018-09-03T08:39:47.723Z,56.9
2018-09-03T08:40:37.128Z,56.8
2018-09-03T08:41:27.752Z,56.7
2018-09-03T08:42:17.515Z,56.6
2018-09-03T08:43:07.312Z,56.6
2018-09-03T08:43:57.383Z,56.8
2018-09-03T08:44:48.660Z,57
2018-09-03T08:45:38.789Z,57.3
2018-09-03T08:46:28.132Z,57.6
2018-09-03T08:48:38.274Z,58
2018-09-03T08:48:58.213Z,58.2
2018-09-03T08:49:48.176Z,58.2
2018-09-03T08:50:38.899Z,58.1
2018-09-03T08:51:28.085Z,58.3
2018-09-03T08:52:18.169Z,58.4
2018-09-03T08:53:08.390Z,58.7
2018-09-03T08:53:58.167Z,58.9
2018-09-03T08:54:48.532Z,59.1
2018-09-03T08:55:38.807Z,59.4
2018-09-03T08:56:28.630Z,59.6
2018-09-03T08:57:19.009Z,59.7
2018-09-03T08:58:09.107Z,59.6
2018-09-03T09:14:50.611Z,60.3
2018-09-03T09:15:40.444Z,60.6
2018-09-03T09:16:31.021Z,60.9
2018-09-03T09:17:20.544Z,61.2
2018-09-03T09:18:11.236Z,61.4
2018-09-03T09:19:00.460Z,61.5
2018-09-03T09:19:51.559Z,61.6
2018-09-03T09:20:41.092Z,61.8
2018-09-03T09:21:30.854Z,61.9
2018-09-03T09:22:21.008Z,61.9
2018-09-03T09:23:11.316Z,61.9
2018-09-03T09:24:01.316Z,61.9
2018-09-03T09:24:51.478Z,61.8
2018-09-03T09:25:41.291Z,61.7
2018-09-03T09:26:30.969Z,61.8
2018-09-03T09:27:21.081Z,61.9
2018-09-03T09:28:11.713Z,62.3
2018-09-03T09:29:01.133Z,62.7
2018-09-03T09:29:51.772Z,63.1
2018-09-03T09:30:42.118Z,63.4
2018-09-03T09:31:31.900Z,63.6
2018-09-03T09:32:21.423Z,63.8
2018-09-03T09:33:12.363Z,64
2018-09-03T09:34:01.543Z,64.3
2018-09-03T09:34:52.253Z,64.4
2018-09-03T09:35:41.542Z,64.3
2018-09-03T09:36:31.757Z,63.7
2018-09-03T09:37:22.438Z,62.9
2018-09-03T09:38:12.153Z,62.2
2018-09-03T09:39:02.264Z,61.7
2018-09-03T09:39:53.098Z,61.4
2018-09-03T09:40:42.913Z,61.3
2018-09-03T09:41:33.097Z,61.4
2018-09-03T09:42:22.767Z,61.6
2018-09-03T09:43:13.562Z,62
2018-09-03T09:44:02.392Z,62.4
2018-09-03T09:44:52.962Z,62.8
2018-09-03T09:45:42.809Z,63.1
2018-09-03T09:46:33.140Z,63.3
2018-09-03T09:47:23.817Z,63.5
2018-09-03T09:48:12.973Z,63.4
2018-09-03T09:49:03.892Z,63.2
2018-09-03T09:49:53.907Z,63.1
2018-09-03T09:50:43.734Z,63.3
2018-09-03T09:51:33.254Z,63.8
2018-09-03T09:52:22.728Z,64.2
2018-09-03T09:53:13.601Z,64.6
2018-09-03T09:54:03.702Z,64.8
2018-09-03T09:54:55.093Z,65.1
2018-09-03T09:55:44.316Z,65.5
2018-09-03T09:56:33.143Z,65.9
2018-09-03T09:57:23.989Z,66.3
2018-09-03T09:58:14.031Z,66.6
2018-09-03T09:59:04.063Z,67
2018-09-03T09:59:54.150Z,67.3
2018-09-03T10:00:44.163Z,67.5
2018-09-03T10:01:33.968Z,67.8
2018-09-03T10:02:24.333Z,68.1
2018-09-03T10:03:14.068Z,68.3
2018-09-03T10:04:04.744Z,68.5
2018-09-03T10:04:54.023Z,68.7
2018-09-03T10:05:44.944Z,68.9
2018-09-03T10:06:35.002Z,69
2018-09-03T10:07:23.877Z,69
2018-09-03T10:08:14.530Z,69
2018-09-03T10:09:04.612Z,68.7
2018-09-03T10:09:54.356Z,67.9
2018-09-03T10:10:45.400Z,67
2018-09-03T10:11:34.740Z,66.2
2018-09-03T10:12:24.832Z,65.5
2018-09-03T10:13:15.177Z,65
2018-09-03T10:14:04.940Z,64.6
2018-09-03T10:14:54.804Z,64.2
2018-09-03T10:15:44.827Z,63.8
2018-09-03T10:16:35.264Z,63.5
2018-09-03T10:17:24.960Z,63.2
2018-09-03T10:18:15.901Z,62.9
2018-09-03T10:19:04.791Z,62.7
2018-09-03T10:19:55.980Z,62.4
2018-09-03T10:20:45.658Z,62.3
2018-09-03T10:21:35.252Z,62.1
2018-09-03T10:22:25.087Z,62.1
2018-09-03T10:23:15.103Z,62.1
2018-09-03T10:24:06.373Z,62.3
2018-09-03T10:24:55.337Z,62.6
2018-09-03T10:25:45.038Z,62.8
2018-09-03T10:26:36.188Z,63.1
2018-09-03T10:27:25.449Z,63.7
2018-09-03T10:28:16.052Z,64.4
2018-09-03T10:29:06.114Z,65.1
2018-09-03T10:29:55.967Z,64.8
2018-09-03T10:30:46.344Z,64
2018-09-03T10:31:36.602Z,63.3
2018-09-03T10:32:27.040Z,62.7
2018-09-03T10:33:16.460Z,62.4
2018-09-03T10:34:06.541Z,62.3
2018-09-03T10:34:56.591Z,62.1
2018-09-03T10:35:46.960Z,62.1
2018-09-03T10:36:37.060Z,61.9
2018-09-03T10:37:27.122Z,61.8
2018-09-03T10:38:17.344Z,61.6
2018-09-03T10:39:06.921Z,61.6
2018-09-03T10:39:57.261Z,61.6
2018-09-03T10:40:46.775Z,61.6
2018-09-03T10:41:37.460Z,61.7
2018-09-03T10:42:27.723Z,61.7
2018-09-03T10:43:17.229Z,61.9
2018-09-03T10:44:07.040Z,62.8
2018-09-03T10:44:57.388Z,63.9
2018-09-03T10:45:47.503Z,64.9
2018-09-03T10:46:37.860Z,65.4
2018-09-03T10:47:28.730Z,65.7
2018-09-03T10:48:18.265Z,65.9
2018-09-03T10:49:08.009Z,66.1
2018-09-03T10:49:57.510Z,66.4
2018-09-03T10:50:47.819Z,66.8
2018-09-03T10:51:37.975Z,67.1
2018-09-03T10:52:27.475Z,67.4
2018-09-03T10:53:17.530Z,67.6
2018-09-03T10:54:08.715Z,67.8
2018-09-03T10:54:58.451Z,67.6
2018-09-03T10:55:47.632Z,67.3
2018-09-03T10:56:38.602Z,67.3
2018-09-03T10:57:29.206Z,67.4
2018-09-03T10:58:18.988Z,67.7
2018-09-03T10:59:08.782Z,67.8
2018-09-03T10:59:58.567Z,67.6
2018-09-03T11:00:49.165Z,67.4
2018-09-03T11:01:38.427Z,66.9
2018-09-03T11:02:29.024Z,66.2
2018-09-03T11:03:18.252Z,65.6
2018-09-03T11:04:09.393Z,65.4
2018-09-03T11:04:58.967Z,65.3
2018-09-03T11:05:49.007Z,65
2018-09-03T11:06:38.843Z,64.6
2018-09-03T11:07:29.194Z,64.1
2018-09-03T11:08:19.176Z,63.6
2018-09-03T11:09:09.336Z,63.3
2018-09-03T11:09:59.646Z,63
2018-09-03T11:10:49.388Z,62.8
2018-09-03T11:11:39.758Z,62.6
2018-09-03T11:12:29.877Z,62.4
2018-09-03T11:13:19.654Z,62.3
2018-09-03T11:14:10.892Z,62.1
2018-09-03T11:15:00.318Z,61.9
2018-09-03T11:15:50.359Z,61.8
2018-09-03T11:16:40.397Z,61.8
2018-09-03T11:17:30.577Z,61.7
2018-09-03T11:18:20.031Z,61.9
2018-09-03T11:19:10.354Z,62.7
2018-09-03T11:20:01.935Z,63.9
2018-09-03T11:20:50.184Z,64.9
2018-09-03T11:21:43.628Z,65.1
2018-09-03T11:22:31.036Z,65
2018-09-03T11:23:20.127Z,64.8
2018-09-03T11:24:10.232Z,64.2
2018-09-03T11:25:00.782Z,63.7
2018-09-03T11:25:50.852Z,63.3
2018-09-03T11:26:40.902Z,63.3
2018-09-03T11:27:31.171Z,63.7
2018-09-03T11:28:20.747Z,64.1
2018-09-03T11:29:11.404Z,64
2018-09-03T11:30:00.896Z,63.5
2018-09-03T11:30:51.241Z,63
2018-09-03T11:31:40.421Z,62.6
2018-09-03T11:32:31.366Z,62.4
2018-09-03T11:33:21.394Z,62.3
2018-09-03T11:34:10.993Z,62.3
2018-09-03T11:35:01.821Z,62.2
2018-09-03T11:35:51.076Z,62.5
2018-09-03T11:36:41.706Z,63.1
2018-09-03T11:37:31.226Z,63.9
2018-09-03T11:38:22.111Z,64.8
2018-09-03T11:39:11.871Z,65.3
2018-09-03T11:40:01.681Z,65.6
2018-09-03T11:40:51.597Z,65.9
2018-09-03T11:41:41.516Z,66.1
2018-09-03T11:42:32.337Z,65.7
2018-09-03T11:43:22.969Z,64.8
2018-09-03T11:44:11.716Z,64.1
2018-09-03T11:45:02.356Z,63.5
2018-09-03T11:45:52.148Z,63.2
2018-09-03T11:46:42.756Z,63
2018-09-03T11:47:32.530Z,62.9
2018-09-03T11:48:22.938Z,63.3
2018-09-03T11:49:12.433Z,63.9
2018-09-03T11:50:03.037Z,64.7
2018-09-03T11:50:52.361Z,65.4
2018-09-03T11:51:41.779Z,65.8
2018-09-03T11:52:32.663Z,66.1
2018-09-03T11:53:22.143Z,66.3
2018-09-03T11:54:12.315Z,66.4
2018-09-03T11:55:02.286Z,66.3
2018-09-03T11:55:53.007Z,65.8
2018-09-03T11:56:42.776Z,65.3
2018-09-03T11:57:33.922Z,64.8
2018-09-03T11:58:22.923Z,64.8
2018-09-03T11:59:12.408Z,64.6
2018-09-03T12:00:03.573Z,64.3
2018-09-03T12:00:53.612Z,63.9
2018-09-03T12:01:43.168Z,63.8
2018-09-03T12:02:33.457Z,63.8
2018-09-03T12:03:23.217Z,64.1
2018-09-03T12:04:13.891Z,64.2
2018-09-03T12:05:03.645Z,63.9
2018-09-03T12:05:53.815Z,63.4
2018-09-03T12:06:44.308Z,62.9
2018-09-03T12:07:34.377Z,62.6
2018-09-03T12:08:23.910Z,62.4
2018-09-03T12:09:13.407Z,62.3
2018-09-03T12:10:04.419Z,62.3
2018-09-03T12:10:54.654Z,62.2
2018-09-03T12:11:43.885Z,62.1
2018-09-03T12:12:34.317Z,61.9
2018-09-03T12:13:25.114Z,61.9
2018-09-03T12:14:14.882Z,62.5
2018-09-03T12:15:04.727Z,63.4
2018-09-03T12:15:54.216Z,64.2
2018-09-03T12:16:44.844Z,64.7
2018-09-03T12:17:34.738Z,65